Glidden, Iowa
Current Conditions -  °F | °C
As of 7:35 PM on Monday 22 Dec 2014 (Local Time) from KCIN Reporting Station
Unknown Precip Unknown Precip  
Wind Chill: 29°   Ceiling: 400
Heat Index: 37°   Visibility: 5mi
Dew Point: 37°   Wind: 13mph
Humidity: 100%   Direction: 100°E
Pressure: 29.44"   Gusts: NA
Location:  42.06°N, 94.73°W
Report Text: KCIN 230135Z AUTO 10011KT 5SM -UP OVC004 03/03 A2944 RMK AO2
Loading
Personal Weather Stations






























Interactive Weather Map New forecast layout! Learn more

10-Day Weather Forecast

Advertisements
Track Severe Weather on mobile